createdAt,value
2019-05-16T00:00:29.848Z,71.61
2019-05-16T00:01:30.146Z,71.80
2019-05-16T00:02:29.663Z,72.46
2019-05-16T00:03:29.657Z,72.37
2019-05-16T00:04:29.785Z,71.98
2019-05-16T00:05:29.577Z,71.98
2019-05-16T00:06:29.696Z,72.37
2019-05-16T00:07:29.527Z,72.65
2019-05-16T00:08:29.516Z,72.42
2019-05-16T00:09:29.613Z,73.00
2019-05-16T00:10:29.459Z,73.47
2019-05-16T00:11:29.552Z,73.66
2019-05-16T00:12:29.404Z,73.47
2019-05-16T00:13:29.380Z,73.47
2019-05-16T00:14:29.361Z,73.95
2019-05-16T00:15:29.340Z,73.95
2019-05-16T00:16:29.329Z,74.33
2019-05-16T00:17:29.367Z,74.04
2019-05-16T00:18:29.369Z,74.33
2019-05-16T00:19:29.225Z,74.71
2019-05-16T00:20:29.467Z,74.99
2019-05-16T00:21:29.169Z,75.43
2019-05-16T00:22:29.290Z,75.28
2019-05-16T00:23:29.109Z,75.53
2019-05-16T00:24:29.250Z,76.20
2019-05-16T00:25:29.058Z,76.57
2019-05-16T00:26:29.223Z,76.71
2019-05-16T00:27:29.001Z,76.76
2019-05-16T00:28:29.129Z,76.86
2019-05-16T00:29:28.958Z,76.67
2019-05-16T00:30:29.038Z,76.67
2019-05-16T00:31:28.906Z,76.48
2019-05-16T00:32:29.059Z,77.05
2019-05-16T00:33:28.860Z,77.15
2019-05-16T00:34:28.822Z,77.05
2019-05-16T00:35:28.849Z,77.43
2019-05-16T00:36:28.884Z,78.10
2019-05-16T00:37:28.830Z,77.72
2019-05-16T00:38:28.896Z,78.38
2019-05-16T00:39:28.690Z,78.38
2019-05-16T00:40:28.826Z,78.48
2019-05-16T00:41:28.639Z,77.81
2019-05-16T00:42:28.775Z,78.29
2019-05-16T00:43:28.992Z,78.19
2019-05-16T00:44:28.743Z,78.57
2019-05-16T00:45:29.422Z,78.38
2019-05-16T00:46:28.637Z,78.48
2019-05-16T00:47:28.537Z,78.29
2019-05-16T00:48:28.941Z,78.29
2019-05-16T00:49:28.419Z,78.29
2019-05-16T00:50:28.943Z,78.86
2019-05-16T00:51:28.807Z,78.77
2019-05-16T00:52:28.921Z,78.29
2019-05-16T00:53:28.854Z,78.29
2019-05-16T00:54:28.499Z,78.67
2019-05-16T00:55:28.481Z,79.62
2019-05-16T00:56:28.860Z,79.91
2019-05-16T00:57:28.287Z,80.10
2019-05-16T00:58:28.528Z,80.19
2019-05-16T00:59:28.153Z,80.19
2019-05-16T01:00:28.540Z,79.81
2019-05-16T01:01:28.324Z,79.52
2019-05-16T01:02:28.876Z,80.29
2019-05-16T01:03:29.045Z,80.29
2019-05-16T01:04:28.804Z,80.66
2019-05-16T01:05:28.472Z,79.72
2019-05-16T01:06:28.687Z,80.38
2019-05-16T01:07:27.939Z,81.05
2019-05-16T01:08:28.300Z,80.57
2019-05-16T01:09:28.315Z,81.05
2019-05-16T01:10:29.559Z,81.05
2019-05-16T01:11:27.903Z,81.05
2019-05-16T01:12:28.360Z,81.05
2019-05-16T01:13:27.940Z,80.66
2019-05-16T01:14:28.275Z,80.57
2019-05-16T01:15:28.796Z,80.66
2019-05-16T01:16:27.744Z,80.57
2019-05-16T01:17:28.391Z,80.47
2019-05-16T01:18:28.730Z,80.86
2019-05-16T01:19:27.860Z,80.47
2019-05-16T01:20:27.978Z,80.76
2019-05-16T01:21:28.732Z,80.86
2019-05-16T01:22:28.971Z,80.66
2019-05-16T01:23:28.299Z,80.76
2019-05-16T01:24:29.272Z,80.76
2019-05-16T01:25:28.211Z,80.76
2019-05-16T01:26:28.607Z,80.95
2019-05-16T01:27:27.806Z,81.14
2019-05-16T01:28:28.444Z,81.14
2019-05-16T01:29:28.233Z,81.33
2019-05-16T01:30:28.677Z,81.33
2019-05-16T01:31:27.997Z,81.33
2019-05-16T01:32:29.163Z,82.09
2019-05-16T01:33:28.138Z,81.71
2019-05-16T01:34:28.438Z,81.62
2019-05-16T01:35:27.888Z,81.43
2019-05-16T01:36:36.601Z,81.52
2019-05-16T01:37:27.915Z,81.05
2019-05-16T01:38:28.545Z,81.18
2019-05-16T01:39:28.773Z,80.57
2019-05-16T01:40:28.083Z,80.76
2019-05-16T01:41:28.527Z,80.99
2019-05-16T01:42:27.911Z,80.99
2019-05-16T01:43:28.426Z,80.86
2019-05-16T01:44:28.702Z,80.61
2019-05-16T01:45:27.755Z,80.95
2019-05-16T01:46:28.442Z,80.86
2019-05-16T01:47:28.817Z,80.19
2019-05-16T01:48:28.994Z,80.57
2019-05-16T01:49:28.000Z,80.57
2019-05-16T01:50:28.412Z,80.57
2019-05-16T01:51:28.863Z,80.76
2019-05-16T01:52:28.927Z,80.66
2019-05-16T01:53:27.854Z,81.05
2019-05-16T01:54:28.301Z,81.52
2019-05-16T01:55:28.564Z,81.33
2019-05-16T01:56:28.090Z,82.09
2019-05-16T01:57:28.220Z,82.00
2019-05-16T01:58:28.810Z,82.19
2019-05-16T01:59:28.408Z,82.19
2019-05-16T02:00:35.678Z,81.81
2019-05-16T02:01:28.714Z,81.81
2019-05-16T02:02:28.783Z,81.90
2019-05-16T02:03:28.250Z,81.81
2019-05-16T02:04:28.612Z,82.28
2019-05-16T02:05:27.980Z,82.48
2019-05-16T02:06:28.662Z,82.48
2019-05-16T02:07:28.262Z,82.48
2019-05-16T02:08:28.498Z,82.48
2019-05-16T02:09:28.046Z,82.57
2019-05-16T02:10:28.332Z,82.95
2019-05-16T02:11:28.358Z,83.04
2019-05-16T02:12:27.736Z,83.04
2019-05-16T02:13:28.394Z,83.42
2019-05-16T02:14:28.236Z,82.86
2019-05-16T02:15:26.093Z,82.86
2019-05-16T02:16:27.880Z,83.23
2019-05-16T02:17:28.673Z,83.42
2019-05-16T02:18:26.127Z,83.23
2019-05-16T02:19:27.884Z,83.71
2019-05-16T02:20:28.161Z,83.42
2019-05-16T02:21:26.049Z,83.14
2019-05-16T02:22:25.900Z,83.42
2019-05-16T02:23:27.753Z,83.52
2019-05-16T02:24:28.333Z,83.42
2019-05-16T02:25:27.671Z,83.52
2019-05-16T02:26:28.242Z,83.81
2019-05-16T02:27:25.887Z,83.71
2019-05-16T02:28:31.324Z,83.42
2019-05-16T02:29:25.708Z,83.71
2019-05-16T02:30:25.814Z,83.48
2019-05-16T02:31:25.658Z,83.42
2019-05-16T02:32:25.819Z,83.95
2019-05-16T02:33:25.611Z,84.09
2019-05-16T02:34:25.732Z,83.81
2019-05-16T02:35:25.548Z,83.90
2019-05-16T02:36:25.520Z,84.28
2019-05-16T02:37:29.943Z,84.19
2019-05-16T02:38:25.469Z,84.05
2019-05-16T02:39:25.560Z,84.05
2019-05-16T02:40:25.410Z,84.19
2019-05-16T02:41:25.387Z,84.43
2019-05-16T02:42:25.349Z,83.76
2019-05-16T02:43:26.558Z,83.86
2019-05-16T02:44:25.302Z,83.95
2019-05-16T02:45:25.399Z,83.76
2019-05-16T02:46:25.239Z,83.95
2019-05-16T02:49:00.596Z,84.91
2019-05-16T02:49:57.313Z,84.81
2019-05-16T02:50:57.375Z,84.91
2019-05-16T02:51:57.251Z,85.38
2019-05-16T02:52:57.292Z,86.24
2019-05-16T02:53:57.190Z,86.05
2019-05-16T02:55:00.601Z,86.05
2019-05-16T02:55:57.144Z,85.95
2019-05-16T02:56:57.220Z,86.05
2019-05-16T02:58:00.391Z,85.86
2019-05-16T02:58:57.125Z,86.05
2019-05-16T02:59:57.031Z,85.86
2019-05-16T03:00:57.038Z,86.24
2019-05-16T03:01:56.985Z,85.95
2019-05-16T03:02:56.941Z,85.86
2019-05-16T03:03:56.924Z,85.66
2019-05-16T03:04:56.952Z,86.14
2019-05-16T03:05:56.864Z,85.95
2019-05-16T03:06:56.860Z,85.86
2019-05-16T03:07:56.819Z,85.95
2019-05-16T03:08:56.875Z,85.76
2019-05-16T03:09:56.762Z,85.86
2019-05-16T03:10:56.784Z,85.86
2019-05-16T03:11:56.705Z,86.61
2019-05-16T03:12:56.694Z,86.61
2019-05-16T03:13:56.654Z,86.43
2019-05-16T03:14:56.709Z,87.09
2019-05-16T03:15:56.592Z,87.28
2019-05-16T03:16:56.619Z,87.57
2019-05-16T03:17:59.036Z,87.57
2019-05-16T03:18:56.501Z,87.09
2019-05-16T03:19:56.475Z,87.57
2019-05-16T03:20:56.549Z,87.47
2019-05-16T03:21:56.429Z,87.57
2019-05-16T03:22:56.459Z,86.80
2019-05-16T03:23:56.461Z,86.52
2019-05-16T03:24:56.339Z,86.61
2019-05-16T03:25:56.363Z,86.52
2019-05-16T03:26:56.289Z,86.80
2019-05-16T03:27:56.354Z,86.80
2019-05-16T03:28:56.232Z,86.43
2019-05-16T03:29:56.377Z,86.14
2019-05-16T03:30:56.185Z,85.95
2019-05-16T03:31:56.294Z,85.52
2019-05-16T03:32:56.182Z,85.57
2019-05-16T03:33:59.782Z,85.28
2019-05-16T03:34:56.083Z,86.18
2019-05-16T03:35:56.346Z,85.76
2019-05-16T03:36:56.024Z,86.18
2019-05-16T03:38:00.672Z,85.80
2019-05-16T03:38:55.956Z,85.99
2019-05-16T03:39:55.926Z,85.99
2019-05-16T03:40:55.912Z,85.99
2019-05-16T03:41:56.050Z,85.99
2019-05-16T03:42:55.843Z,86.09
2019-05-16T03:43:55.959Z,85.90
2019-05-16T03:44:55.798Z,86.18
2019-05-16T03:45:55.971Z,85.99
2019-05-16T03:46:55.755Z,85.99
2019-05-16T03:47:55.891Z,86.18
2019-05-16T03:48:55.711Z,86.18
2019-05-16T03:49:55.800Z,85.90
2019-05-16T03:50:55.636Z,85.99
2019-05-16T03:51:55.816Z,85.99
2019-05-16T03:52:55.578Z,86.94
2019-05-16T03:53:55.730Z,86.57
2019-05-16T03:54:55.519Z,86.57
2019-05-16T03:55:55.496Z,86.66
2019-05-16T03:56:55.469Z,86.38
2019-05-16T03:57:55.650Z,86.66
2019-05-16T03:58:55.415Z,86.76
2019-05-16T03:59:55.561Z,85.80
2019-05-16T04:00:55.557Z,86.09
2019-05-16T04:01:55.471Z,85.14
2019-05-16T04:02:55.308Z,84.95
2019-05-16T04:03:55.487Z,84.61
2019-05-16T04:04:55.245Z,84.61
2019-05-16T04:05:55.315Z,84.38
2019-05-16T04:06:55.234Z,84.13
2019-05-16T04:08:10.155Z,83.94
2019-05-16T04:08:55.214Z,83.94
2019-05-16T04:09:55.117Z,83.85
2019-05-16T04:10:55.121Z,83.47
2019-05-16T04:11:55.141Z,83.47
2019-05-16T04:12:55.022Z,83.18
2019-05-16T04:13:55.044Z,82.99
2019-05-16T04:14:54.974Z,83.37
2019-05-16T04:15:55.060Z,82.90
2019-05-16T04:16:54.962Z,82.70
2019-05-16T04:17:54.915Z,82.70
2019-05-16T04:18:54.985Z,82.51
2019-05-16T04:19:54.833Z,82.70
2019-05-16T04:20:54.894Z,82.70
2019-05-16T04:21:54.773Z,82.32
2019-05-16T04:22:54.755Z,82.51
2019-05-16T04:23:54.810Z,82.42
2019-05-16T04:24:54.691Z,82.51
2019-05-16T04:25:54.731Z,82.51
2019-05-16T04:26:54.649Z,82.51
2019-05-16T04:27:54.592Z,81.95
2019-05-16T04:28:54.649Z,81.95
2019-05-16T04:29:54.570Z,81.95
2019-05-16T04:30:54.660Z,81.47
2019-05-16T04:31:54.505Z,81.56
2019-05-16T04:32:54.479Z,81.56
2019-05-16T04:33:54.461Z,81.47
2019-05-16T04:34:54.474Z,80.99
2019-05-16T04:35:54.401Z,81.28
2019-05-16T04:36:54.501Z,80.71
2019-05-16T04:37:54.345Z,80.52
2019-05-16T04:38:54.405Z,80.61
2019-05-16T04:39:54.281Z,80.46
2019-05-16T04:40:54.325Z,80.46
2019-05-16T04:41:54.254Z,80.75
2019-05-16T04:42:54.332Z,80.36
2019-05-16T04:43:54.230Z,80.75
2019-05-16T04:44:54.158Z,80.18
2019-05-16T04:45:54.274Z,79.89
2019-05-16T04:46:54.107Z,79.41
2019-05-16T04:47:54.161Z,79.51
2019-05-16T04:48:54.175Z,79.60
2019-05-16T04:49:54.011Z,79.80
2019-05-16T04:50:54.080Z,79.80
2019-05-16T04:51:53.954Z,79.70
2019-05-16T04:52:54.092Z,79.80
2019-05-16T04:53:53.903Z,79.70
2019-05-16T04:54:54.002Z,79.99
2019-05-16T04:55:53.866Z,79.13
2019-05-16T04:56:53.911Z,79.41
2019-05-16T04:57:53.802Z,79.32
2019-05-16T04:58:53.944Z,79.41
2019-05-16T04:59:53.762Z,79.51
2019-05-16T05:00:53.841Z,79.51
2019-05-16T05:01:53.691Z,79.22
2019-05-16T05:02:53.751Z,79.22
2019-05-16T05:04:06.242Z,78.94
2019-05-16T05:04:53.622Z,79.22
2019-05-16T05:05:53.701Z,79.03
2019-05-16T05:06:55.856Z,78.50
2019-05-16T05:07:53.700Z,78.46
2019-05-16T05:08:58.634Z,77.80
2019-05-16T05:09:53.481Z,77.26
2019-05-16T05:10:53.605Z,77.26
2019-05-16T05:11:53.430Z,77.13
2019-05-16T05:12:53.525Z,77.36
2019-05-16T05:13:53.366Z,76.75
2019-05-16T05:14:53.434Z,76.84
2019-05-16T05:15:53.315Z,76.88
2019-05-16T05:16:53.445Z,77.26
2019-05-16T05:17:53.262Z,77.07
2019-05-16T05:18:53.353Z,77.32
2019-05-16T05:19:53.215Z,76.79
2019-05-16T05:20:53.192Z,76.88
2019-05-16T05:21:53.152Z,77.26
2019-05-16T05:22:53.279Z,76.79
2019-05-16T05:23:53.101Z,76.88
2019-05-16T05:24:53.189Z,77.07
2019-05-16T05:25:53.205Z,76.88
2019-05-16T05:26:53.024Z,76.98
2019-05-16T05:27:53.114Z,76.98
2019-05-16T05:28:52.979Z,77.07
2019-05-16T05:29:53.143Z,75.93
2019-05-16T05:30:52.910Z,75.74
2019-05-16T05:31:55.110Z,75.84
2019-05-16T05:32:52.869Z,75.93
2019-05-16T05:33:52.958Z,75.55
2019-05-16T05:34:52.815Z,75.84
2019-05-16T05:35:52.971Z,75.64
2019-05-16T05:36:52.761Z,75.36
2019-05-16T05:37:52.884Z,74.79
2019-05-16T05:39:06.473Z,74.69
2019-05-16T05:39:52.685Z,74.98
2019-05-16T05:40:52.674Z,74.12
2019-05-16T05:41:52.638Z,74.50
2019-05-16T05:42:52.596Z,74.31
2019-05-16T05:43:54.478Z,73.93
2019-05-16T05:44:52.540Z,73.83
2019-05-16T05:45:52.631Z,73.83
2019-05-16T05:46:52.507Z,72.88
2019-05-16T05:47:52.643Z,72.69
2019-05-16T05:48:52.449Z,73.07
2019-05-16T05:49:52.556Z,73.07
2019-05-16T05:50:52.396Z,73.17
2019-05-16T05:51:52.469Z,73.26
2019-05-16T05:52:52.342Z,72.88
2019-05-16T05:53:52.493Z,72.69
2019-05-16T05:54:52.297Z,73.30
2019-05-16T05:55:52.397Z,73.36
2019-05-16T05:56:52.220Z,72.97
2019-05-16T05:57:52.210Z,73.07
2019-05-16T05:58:52.344Z,73.17
2019-05-16T05:59:52.151Z,73.07
2019-05-16T06:00:52.635Z,72.16
2019-05-16T06:01:52.103Z,72.34
2019-05-16T06:02:52.073Z,72.44
2019-05-16T06:03:52.040Z,71.48
2019-05-16T06:04:52.155Z,72.06
2019-05-16T06:05:52.005Z,72.06
2019-05-16T06:06:52.170Z,72.63
2019-05-16T06:07:51.951Z,72.06
2019-05-16T06:08:51.942Z,72.25
2019-05-16T06:09:56.149Z,72.34
2019-05-16T06:10:51.858Z,71.58
2019-05-16T06:11:51.923Z,71.68
2019-05-16T06:12:51.803Z,71.39
2019-05-16T06:13:51.788Z,71.20
2019-05-16T06:14:51.761Z,71.30
2019-05-16T06:15:51.819Z,70.92
2019-05-16T06:16:51.710Z,70.82
2019-05-16T06:17:51.749Z,71.39
2019-05-16T06:18:51.736Z,71.11
2019-05-16T06:19:51.620Z,71.68
2019-05-16T06:20:51.669Z,71.30
2019-05-16T06:21:51.571Z,71.01
2019-05-16T06:22:51.662Z,71.30
2019-05-16T06:23:51.527Z,70.92
2019-05-16T06:24:51.587Z,71.30
2019-05-16T06:25:51.465Z,71.33
2019-05-16T06:26:51.481Z,69.90
2019-05-16T06:27:51.415Z,70.00
2019-05-16T06:28:51.506Z,70.19
2019-05-16T06:29:51.368Z,69.58
2019-05-16T06:30:52.148Z,70.19
2019-05-16T06:31:51.316Z,70.28
2019-05-16T06:32:51.320Z,70.28
2019-05-16T06:33:51.255Z,69.90
2019-05-16T06:34:51.229Z,70.47
2019-05-16T06:35:51.655Z,70.47
2019-05-16T06:36:51.255Z,70.09
2019-05-16T06:37:51.153Z,69.43
2019-05-16T06:38:51.278Z,69.33
2019-05-16T06:39:51.101Z,68.85
2019-05-16T06:40:52.702Z,68.28
2019-05-16T06:41:51.234Z,68.09
2019-05-16T06:42:51.182Z,68.28
2019-05-16T06:43:50.994Z,67.14
2019-05-16T06:44:51.102Z,67.33
2019-05-16T06:45:51.524Z,68.38
2019-05-16T06:47:08.945Z,68.09
2019-05-16T06:47:50.884Z,67.52
2019-05-16T06:48:50.939Z,66.56
2019-05-16T06:49:51.061Z,66.75
2019-05-16T06:50:51.733Z,66.75
2019-05-16T06:51:51.529Z,67.52
2019-05-16T06:52:50.764Z,67.04
2019-05-16T06:53:50.869Z,67.14
2019-05-16T06:54:53.756Z,66.18
2019-05-16T06:55:50.684Z,65.99
2019-05-16T06:56:51.094Z,65.52
2019-05-16T06:57:50.695Z,65.42
2019-05-16T06:58:51.909Z,65.80
2019-05-16T06:59:50.726Z,66.75
2019-05-16T07:00:52.195Z,67.23
2019-05-16T07:01:50.620Z,67.71
2019-05-16T07:02:50.497Z,68.18
2019-05-16T07:03:50.938Z,67.42
2019-05-16T07:04:50.735Z,67.55
2019-05-16T07:05:50.807Z,68.22
2019-05-16T07:06:58.559Z,68.60
2019-05-16T07:07:50.872Z,68.03
2019-05-16T07:08:50.959Z,67.46
2019-05-16T07:10:00.023Z,67.36
2019-05-16T07:10:50.978Z,67.17
2019-05-16T07:11:50.538Z,66.02
2019-05-16T07:12:50.610Z,65.64
2019-05-16T07:13:51.929Z,65.36
2019-05-16T07:14:50.668Z,64.78
2019-05-16T07:15:50.500Z,65.36
2019-05-16T07:16:50.133Z,65.83
2019-05-16T07:17:50.768Z,65.83
2019-05-16T07:18:50.563Z,65.17
2019-05-16T07:19:50.429Z,64.31
2019-05-16T07:20:51.114Z,64.02
2019-05-16T07:21:50.875Z,64.31
2019-05-16T07:22:50.440Z,64.50
2019-05-16T07:23:51.093Z,64.88
2019-05-16T07:24:50.445Z,64.31
2019-05-16T07:25:50.752Z,64.21
2019-05-16T07:26:50.283Z,64.40
2019-05-16T07:27:51.075Z,64.88
2019-05-16T07:28:51.573Z,65.30
2019-05-16T07:29:50.791Z,65.67
2019-05-16T07:30:50.202Z,65.77
2019-05-16T07:31:52.290Z,65.48
2019-05-16T07:32:50.109Z,65.10
2019-05-16T07:33:50.327Z,64.81
2019-05-16T07:34:49.974Z,65.20
2019-05-16T07:35:51.225Z,65.77
2019-05-16T07:36:50.345Z,65.48
2019-05-16T07:37:50.115Z,65.90
2019-05-16T07:38:50.696Z,65.42
2019-05-16T07:39:51.150Z,64.94
2019-05-16T07:40:51.060Z,65.23
2019-05-16T07:41:50.856Z,65.14
2019-05-16T07:42:51.025Z,65.42
2019-05-16T07:43:50.494Z,64.50
2019-05-16T07:44:50.650Z,64.94
2019-05-16T07:45:51.384Z,64.69
2019-05-16T07:46:51.592Z,63.45
2019-05-16T07:47:50.902Z,62.01
2019-05-16T07:48:51.810Z,61.25
2019-05-16T07:49:50.153Z,61.54
2019-05-16T07:50:50.051Z,61.06
2019-05-16T07:51:49.873Z,62.11
2019-05-16T07:52:51.121Z,61.16
2019-05-16T07:53:50.522Z,61.25
2019-05-16T07:54:50.765Z,60.49
2019-05-16T07:55:50.936Z,59.53
2019-05-16T07:56:57.265Z,59.91
2019-05-16T07:57:50.673Z,60.87
2019-05-16T07:58:50.734Z,60.42
2019-05-16T07:59:50.673Z,60.90
2019-05-16T08:00:57.263Z,60.99
2019-05-16T08:01:53.728Z,62.24
2019-05-16T08:02:50.594Z,61.19
2019-05-16T08:03:50.873Z,61.19
2019-05-16T08:04:50.197Z,60.96
2019-05-16T08:05:51.460Z,60.13
2019-05-16T08:06:50.259Z,60.99
2019-05-16T08:07:50.858Z,61.38
2019-05-16T08:08:51.025Z,61.85
2019-05-16T08:09:50.482Z,62.43
2019-05-16T08:10:51.017Z,63.39
2019-05-16T08:11:50.131Z,64.05
2019-05-16T08:12:51.183Z,63.19
2019-05-16T08:13:50.781Z,62.33
2019-05-16T08:14:50.203Z,60.99
2019-05-16T08:15:50.281Z,60.90
2019-05-16T08:16:50.207Z,60.04
2019-05-16T08:17:51.110Z,59.63
2019-05-16T08:18:50.556Z,60.49
2019-05-16T08:19:50.652Z,60.77
2019-05-16T08:20:52.298Z,60.96
2019-05-16T08:21:50.546Z,61.06
2019-05-16T08:22:50.734Z,61.06
2019-05-16T08:23:50.344Z,61.63
2019-05-16T08:24:50.542Z,62.21
2019-05-16T08:25:50.773Z,62.68
2019-05-16T08:26:51.388Z,62.01
2019-05-16T08:27:51.703Z,62.11
2019-05-16T08:28:50.263Z,62.90
2019-05-16T08:29:51.101Z,63.10
2019-05-16T08:30:52.382Z,62.62
2019-05-16T08:31:48.261Z,61.28
2019-05-16T08:32:48.289Z,61.38
2019-05-16T08:33:52.135Z,62.33
2019-05-16T08:34:51.199Z,62.14
2019-05-16T08:35:51.169Z,63.19
2019-05-16T08:36:51.650Z,63.23
2019-05-16T08:37:51.072Z,62.74
2019-05-16T08:38:51.187Z,60.45
2019-05-16T08:39:50.773Z,60.04
2019-05-16T08:41:51.604Z,59.75
2019-05-16T08:42:51.591Z,60.04
2019-05-16T08:43:48.000Z,60.52
2019-05-16T08:44:51.409Z,60.55
2019-05-16T08:45:50.786Z,61.60
2019-05-16T08:46:54.764Z,60.26
2019-05-16T08:47:47.881Z,59.81
2019-05-16T08:48:47.997Z,59.33
2019-05-16T08:49:51.866Z,59.43
2019-05-16T08:50:53.701Z,59.55
2019-05-16T08:51:52.158Z,59.55
2019-05-16T08:52:52.348Z,59.08
2019-05-16T08:53:50.525Z,58.62
2019-05-16T08:54:50.894Z,58.62
2019-05-16T08:55:50.326Z,59.01
2019-05-16T08:56:50.791Z,59.52
2019-05-16T08:57:47.653Z,57.79
2019-05-16T08:58:53.363Z,58.37
2019-05-16T08:59:52.080Z,58.49
2019-05-16T09:00:47.679Z,57.06
2019-05-16T09:01:53.377Z,55.30
2019-05-16T09:02:47.534Z,55.21
2019-05-16T09:03:47.591Z,56.74
2019-05-16T09:04:53.054Z,55.78
2019-05-16T09:05:47.512Z,56.16
2019-05-16T09:06:47.457Z,56.74
2019-05-16T09:07:47.526Z,55.46
2019-05-16T09:08:47.394Z,55.18
2019-05-16T09:09:51.202Z,55.46
2019-05-16T09:10:31.602Z,59.94
2019-05-16T09:10:59.600Z,56.81
2019-05-16T09:11:50.945Z,58.34
2019-05-16T09:12:47.843Z,57.38
2019-05-16T09:13:47.825Z,56.81
2019-05-16T09:14:48.179Z,55.56
2019-05-16T09:15:48.157Z,55.94
2019-05-16T09:16:47.865Z,55.63
2019-05-16T09:17:47.552Z,56.20
2019-05-16T09:18:50.549Z,56.01
2019-05-16T09:19:47.249Z,56.68
2019-05-16T09:20:49.915Z,56.87
2019-05-16T09:21:47.587Z,57.64
2019-05-16T09:22:48.076Z,57.35
2019-05-16T09:23:47.099Z,57.54
2019-05-16T09:24:48.162Z,56.75
2019-05-16T09:25:48.873Z,55.88
2019-05-16T09:26:47.492Z,56.84
2019-05-16T09:27:47.311Z,57.70
2019-05-16T09:28:48.162Z,57.51
2019-05-16T09:29:47.262Z,58.09
2019-05-16T09:30:47.187Z,56.62
2019-05-16T09:32:07.100Z,55.67
2019-05-16T09:32:47.943Z,56.53
2019-05-16T09:33:47.480Z,56.24
2019-05-16T09:34:47.917Z,56.31
2019-05-16T09:35:47.737Z,57.17
2019-05-16T09:36:48.179Z,56.79
2019-05-16T09:37:47.504Z,56.69
2019-05-16T09:38:48.570Z,57.55
2019-05-16T09:39:48.051Z,58.61
2019-05-16T09:40:47.774Z,58.03
2019-05-16T09:41:54.275Z,57.75
2019-05-16T09:42:47.401Z,57.36
2019-05-16T09:43:48.751Z,57.65
2019-05-16T09:44:47.642Z,57.93
2019-05-16T09:45:47.256Z,57.46
2019-05-16T09:46:47.158Z,57.46
2019-05-16T09:47:48.561Z,57.26
2019-05-16T09:48:47.803Z,57.36
2019-05-16T09:49:47.478Z,57.84
2019-05-16T09:50:46.996Z,57.84
2019-05-16T09:51:46.685Z,58.61
2019-05-16T09:52:47.176Z,58.89
2019-05-16T09:53:47.104Z,57.36
2019-05-16T09:54:46.830Z,57.20
2019-05-16T09:55:46.969Z,58.83
2019-05-16T09:56:46.511Z,59.11
2019-05-16T09:57:46.966Z,61.31
2019-05-16T09:58:46.833Z,59.52
2019-05-16T09:59:46.557Z,59.62
2019-05-16T10:00:47.305Z,60.41
2019-05-16T10:01:47.728Z,60.22
2019-05-16T10:02:47.531Z,57.92
2019-05-16T10:03:47.704Z,57.76
2019-05-16T10:04:47.420Z,56.99
2019-05-16T10:05:46.805Z,57.67
2019-05-16T10:06:46.061Z,58.34
2019-05-16T10:07:46.959Z,57.70
2019-05-16T10:08:46.420Z,56.83
2019-05-16T10:09:50.043Z,56.71
2019-05-16T10:10:45.967Z,56.13
2019-05-16T10:11:49.330Z,57.48
2019-05-16T10:12:45.924Z,57.67
2019-05-16T10:13:47.153Z,57.86
2019-05-16T10:14:47.026Z,58.81
2019-05-16T10:15:47.215Z,58.81
2019-05-16T10:16:47.691Z,58.05
2019-05-16T10:17:47.613Z,58.24
2019-05-16T10:18:47.594Z,58.56
2019-05-16T10:19:47.561Z,56.83
2019-05-16T10:20:45.738Z,55.18
2019-05-16T10:21:45.803Z,55.36
2019-05-16T10:22:46.783Z,56.32
2019-05-16T10:23:46.987Z,55.58
2019-05-16T10:24:46.850Z,55.11
2019-05-16T10:25:47.971Z,56.26
2019-05-16T10:26:47.252Z,57.03
2019-05-16T10:27:47.527Z,56.83
2019-05-16T10:28:46.826Z,55.21
2019-05-16T10:29:48.109Z,56.00
2019-05-16T10:30:47.117Z,54.66
2019-05-16T10:31:52.832Z,54.37
2019-05-16T10:32:47.807Z,52.91
2019-05-16T10:33:47.724Z,54.15
2019-05-16T10:34:46.729Z,55.78
2019-05-16T10:35:47.929Z,55.87
2019-05-16T10:36:47.162Z,57.03
2019-05-16T10:37:47.035Z,57.03
2019-05-16T10:38:48.164Z,55.58
2019-05-16T10:39:46.942Z,56.16
2019-05-16T10:40:47.418Z,57.89
2019-05-16T10:41:46.677Z,56.00
2019-05-16T10:42:47.162Z,55.33
2019-05-16T10:43:47.306Z,55.23
2019-05-16T10:44:48.029Z,55.33
2019-05-16T10:45:46.405Z,54.85
2019-05-16T10:46:47.678Z,54.37
2019-05-16T10:47:47.797Z,54.94
2019-05-16T10:48:46.899Z,54.75
2019-05-16T10:49:47.329Z,55.49
2019-05-16T10:50:47.516Z,55.40
2019-05-16T10:51:47.025Z,57.06
2019-05-16T10:52:47.311Z,56.38
2019-05-16T10:54:02.466Z,56.86
2019-05-16T10:54:55.355Z,56.09
2019-05-16T10:55:47.409Z,54.85
2019-05-16T10:56:46.700Z,52.52
2019-05-16T10:57:47.157Z,52.62
2019-05-16T10:59:04.933Z,53.96
2019-05-16T11:00:05.195Z,54.82
2019-05-16T11:01:09.891Z,56.38
2019-05-16T11:01:47.125Z,56.98
2019-05-16T11:02:44.881Z,59.03
2019-05-16T11:03:48.845Z,56.15
2019-05-16T11:04:57.282Z,55.41
2019-05-16T11:05:59.345Z,53.87
2019-05-16T11:06:46.577Z,52.24
2019-05-16T11:07:47.912Z,53.03
2019-05-16T11:08:46.562Z,52.65
2019-05-16T11:09:55.826Z,51.21
2019-05-16T11:10:44.642Z,51.11
2019-05-16T11:11:47.383Z,51.02
2019-05-16T11:12:51.174Z,51.31
2019-05-16T11:13:44.567Z,51.98
2019-05-16T11:14:44.648Z,51.69
2019-05-16T11:15:44.521Z,52.29
2019-05-16T11:16:47.170Z,51.91
2019-05-16T11:17:44.484Z,52.12
2019-05-16T11:18:44.570Z,53.21
2019-05-16T11:19:46.591Z,52.66
2019-05-16T11:20:48.673Z,50.06
2019-05-16T11:21:46.694Z,50.45
2019-05-16T11:22:47.538Z,50.15
2019-05-16T11:23:44.358Z,49.27
2019-05-16T11:24:46.538Z,48.97
2019-05-16T11:25:44.313Z,48.66
2019-05-16T11:26:44.319Z,50.10
2019-05-16T11:27:46.702Z,50.01
2019-05-16T11:28:44.259Z,50.08
2019-05-16T11:29:44.335Z,50.37
2019-05-16T11:30:44.210Z,51.04
2019-05-16T11:31:46.643Z,50.37
2019-05-16T11:32:46.806Z,50.05
2019-05-16T11:33:44.142Z,51.53
2019-05-16T11:34:44.123Z,51.04
2019-05-16T11:35:44.172Z,51.43
2019-05-16T11:36:44.084Z,51.81
2019-05-16T11:37:46.915Z,52.20
2019-05-16T11:38:47.245Z,50.76
2019-05-16T11:39:46.455Z,51.43
2019-05-16T11:40:44.115Z,51.14
2019-05-16T11:41:43.983Z,51.72
2019-05-16T11:42:47.093Z,51.33
2019-05-16T11:43:44.028Z,51.33
2019-05-16T11:44:47.531Z,52.03
2019-05-16T11:45:43.939Z,51.84
2019-05-16T11:46:43.880Z,51.86
2019-05-16T11:47:43.954Z,51.79
2019-05-16T11:48:43.830Z,50.45
2019-05-16T11:49:43.868Z,49.10
2019-05-16T11:50:43.805Z,48.90
2019-05-16T11:51:43.885Z,50.54
2019-05-16T11:52:43.770Z,52.30
2019-05-16T11:53:43.794Z,51.05
2019-05-16T11:54:43.717Z,49.51
2019-05-16T11:55:51.950Z,50.40
2019-05-16T11:56:43.689Z,50.78
2019-05-16T11:57:43.739Z,49.94
2019-05-16T11:58:43.637Z,49.75
2019-05-16T11:59:43.614Z,50.90
2019-05-16T12:00:43.637Z,50.64
2019-05-16T12:01:43.587Z,49.87
2019-05-16T12:02:43.651Z,48.71
2019-05-16T12:03:43.531Z,49.87
2019-05-16T12:04:43.511Z,47.65
2019-05-16T12:05:43.511Z,47.34
2019-05-16T12:06:43.617Z,48.81
2019-05-16T12:07:44.494Z,50.35
2019-05-16T12:08:43.495Z,51.51
2019-05-16T12:09:47.935Z,50.28
2019-05-16T12:10:43.442Z,50.57
2019-05-16T12:11:43.519Z,49.80
2019-05-16T12:12:43.388Z,46.03
2019-05-16T12:13:43.414Z,45.92
2019-05-16T12:14:43.330Z,48.33
2019-05-16T12:15:43.304Z,49.96
2019-05-16T12:16:43.340Z,48.74
2019-05-16T12:17:43.277Z,48.54
2019-05-16T12:18:43.370Z,48.74
2019-05-16T12:19:43.866Z,49.41
2019-05-16T12:20:43.211Z,50.01
2019-05-16T12:21:43.194Z,49.05
2019-05-16T12:22:43.282Z,48.28
2019-05-16T12:23:43.156Z,47.58
2019-05-16T12:24:43.198Z,48.44
2019-05-16T12:25:43.116Z,49.32
2019-05-16T12:26:43.204Z,47.75
2019-05-16T12:27:43.077Z,47.94
2019-05-16T12:28:43.120Z,48.97
2019-05-16T12:29:43.053Z,49.68
2019-05-16T12:30:43.036Z,48.44
2019-05-16T12:31:55.282Z,48.23
2019-05-16T12:32:42.995Z,48.16
2019-05-16T12:33:43.055Z,48.16
2019-05-16T12:34:42.941Z,46.97
2019-05-16T12:35:43.055Z,47.27
2019-05-16T12:36:42.981Z,48.61
2019-05-16T12:37:42.903Z,49.46
2019-05-16T12:38:42.886Z,49.37
2019-05-16T12:39:42.863Z,50.64
2019-05-16T12:40:42.901Z,49.58
2019-05-16T12:41:42.830Z,49.17
2019-05-16T12:42:42.815Z,48.69
2019-05-16T12:43:49.436Z,50.52
2019-05-16T12:44:42.830Z,52.47
2019-05-16T12:45:42.744Z,51.12
2019-05-16T12:46:42.842Z,48.71
2019-05-16T12:47:42.741Z,50.64
2019-05-16T12:48:42.691Z,52.09
2019-05-16T12:49:42.762Z,50.67
2019-05-16T12:50:42.659Z,51.15
2019-05-16T12:51:42.673Z,50.47
2019-05-16T12:52:42.683Z,50.09
2019-05-16T12:53:42.582Z,49.22